createdAt,value
2024-02-29T00:02:11.986Z,101970.81
2024-02-29T00:04:38.824Z,101965.19
2024-02-29T00:07:06.322Z,101966.72
2024-02-29T00:09:33.554Z,101960.84
2024-02-29T00:12:00.421Z,101958.72
2024-02-29T00:14:28.217Z,101965.19
2024-02-29T00:16:55.102Z,101958.56
2024-02-29T00:19:21.934Z,101952.28
2024-02-29T00:21:48.712Z,101955.44
2024-02-29T00:24:15.619Z,101947.69
2024-02-29T00:26:42.657Z,101957.94
2024-02-29T00:29:09.509Z,101957.09
2024-02-29T00:31:36.765Z,101946.00
2024-02-29T00:34:03.537Z,101951.00
2024-02-29T00:36:30.369Z,101955.59
2024-02-29T00:39:05.920Z,101952.69
2024-02-29T00:41:38.755Z,101945.94
2024-02-29T00:44:05.799Z,101941.69
2024-02-29T00:46:32.501Z,101937.94
2024-02-29T00:48:59.290Z,101942.00
2024-02-29T00:51:25.981Z,101933.00
2024-02-29T00:53:52.717Z,101942.25
2024-02-29T00:56:19.426Z,101947.69
2024-02-29T00:58:46.352Z,101943.53
2024-02-29T01:01:13.529Z,101942.50
2024-02-29T01:03:40.361Z,101945.66
2024-02-29T01:06:08.393Z,101935.44
2024-02-29T01:08:35.187Z,101946.94
2024-02-29T01:11:02.059Z,101939.19
2024-02-29T01:13:28.845Z,101941.53
2024-02-29T01:15:55.647Z,101945.31
2024-02-29T01:18:22.372Z,101951.81
2024-02-29T01:20:49.050Z,101942.03
2024-02-29T01:23:15.736Z,101948.28
2024-02-29T01:25:42.679Z,101948.28
2024-02-29T01:28:09.425Z,101944.75
2024-02-29T01:30:36.215Z,101948.28
2024-02-29T01:33:02.929Z,101939.09
2024-02-29T01:35:29.642Z,101919.88
2024-02-29T01:37:56.302Z,101928.03
2024-02-29T01:40:23.337Z,101921.16
2024-02-29T01:42:51.365Z,101912.78
2024-02-29T01:45:18.976Z,101911.91
2024-02-29T01:47:45.812Z,101910.03
2024-02-29T01:50:15.732Z,101903.13
2024-02-29T01:52:45.019Z,101909.44
2024-02-29T01:55:12.805Z,101913.66
2024-02-29T01:57:40.763Z,101901.94
2024-02-29T02:00:09.715Z,101902.16
2024-02-29T02:02:39.460Z,101899.66
2024-02-29T02:05:08.299Z,101897.78
2024-02-29T02:07:38.548Z,101889.47
2024-02-29T02:10:08.912Z,101882.50
2024-02-29T02:12:36.150Z,101887.69
2024-02-29T02:15:04.369Z,101884.81
2024-02-29T02:17:33.049Z,101878.75
2024-02-29T02:20:01.471Z,101873.97
2024-02-29T02:22:29.891Z,101871.88
2024-02-29T02:24:57.294Z,101863.28
2024-02-29T02:27:24.207Z,101865.59
2024-02-29T02:29:50.838Z,101866.66
2024-02-29T02:32:17.569Z,101850.00
2024-02-29T02:34:44.199Z,101851.03
2024-02-29T02:37:10.940Z,101843.47
2024-02-29T02:39:37.875Z,101834.81
2024-02-29T02:42:04.818Z,101834.22
2024-02-29T02:44:31.488Z,101825.03
2024-02-29T02:46:58.194Z,101819.41
2024-02-29T02:49:24.865Z,101809.91
2024-02-29T02:51:51.552Z,101814.81
2024-02-29T02:54:18.286Z,101806.47
2024-02-29T02:56:44.968Z,101808.19
2024-02-29T02:59:12.541Z,101818.91
2024-02-29T03:01:39.240Z,101820.19
2024-02-29T03:04:06.083Z,101817.47
2024-02-29T03:06:32.880Z,101805.53
2024-02-29T03:08:59.733Z,101804.78
2024-02-29T03:11:26.552Z,101799.31
2024-02-29T03:13:54.591Z,101792.66
2024-02-29T03:16:25.016Z,101796.50
2024-02-29T03:18:52.043Z,101792.09
2024-02-29T03:21:19.173Z,101796.94
2024-02-29T03:23:45.874Z,101797.13
2024-02-29T03:26:12.514Z,101792.47
2024-02-29T03:28:43.119Z,101795.84
2024-02-29T03:31:16.701Z,101795.69
2024-02-29T03:33:43.540Z,101796.28
2024-02-29T03:36:10.478Z,101787.06
2024-02-29T03:38:38.253Z,101788.91
2024-02-29T03:41:08.057Z,101791.28
2024-02-29T03:43:37.588Z,101788.56
2024-02-29T03:46:04.701Z,101794.16
2024-02-29T03:48:31.527Z,101780.41
2024-02-29T03:50:58.296Z,101780.84
2024-02-29T03:53:24.965Z,101789.63
2024-02-29T03:55:51.685Z,101779.63
2024-02-29T03:58:18.341Z,101775.25
2024-02-29T04:00:45.250Z,101781.53
2024-02-29T04:03:11.990Z,101787.59
2024-02-29T04:05:38.652Z,101778.41
2024-02-29T04:08:06.281Z,101770.72
2024-02-29T04:10:32.922Z,101771.75
2024-02-29T04:12:59.846Z,101764.59
2024-02-29T04:15:26.769Z,101762.94
2024-02-29T04:17:53.555Z,101753.31
2024-02-29T04:20:20.568Z,101759.09
2024-02-29T04:22:47.237Z,101765.28
2024-02-29T04:25:14.047Z,101761.94
2024-02-29T04:27:40.861Z,101751.75
2024-02-29T04:30:09.704Z,101752.53
2024-02-29T04:32:39.278Z,101746.69
2024-02-29T04:35:07.146Z,101751.44
2024-02-29T04:37:33.914Z,101750.63
2024-02-29T04:40:00.694Z,101745.63
2024-02-29T04:42:27.387Z,101746.31
2024-02-29T04:44:54.097Z,101747.13
2024-02-29T04:47:21.835Z,101744.00
2024-02-29T04:49:48.664Z,101748.00
2024-02-29T04:52:15.704Z,101741.13
2024-02-29T04:54:42.351Z,101734.88
2024-02-29T04:57:09.132Z,101743.84
2024-02-29T04:59:35.799Z,101738.31
2024-02-29T05:02:02.928Z,101736.44
2024-02-29T05:04:29.761Z,101744.53
2024-02-29T05:06:57.500Z,101738.69
2024-02-29T05:09:24.683Z,101747.50
2024-02-29T05:11:51.359Z,101741.59
2024-02-29T05:14:18.060Z,101751.00
2024-02-29T05:16:44.710Z,101746.25
2024-02-29T05:19:11.866Z,101741.69
2024-02-29T05:21:39.716Z,101741.41
2024-02-29T05:24:06.591Z,101734.56
2024-02-29T05:26:33.290Z,101738.59
2024-02-29T05:29:00.004Z,101732.56
2024-02-29T05:31:26.648Z,101728.16
2024-02-29T05:33:53.333Z,101724.47
2024-02-29T05:36:20.051Z,101731.59
2024-02-29T05:38:51.227Z,101727.38
2024-02-29T05:41:18.982Z,101723.25
2024-02-29T05:43:47.349Z,101727.25
2024-02-29T05:46:14.363Z,101716.97
2024-02-29T05:48:41.359Z,101720.06
2024-02-29T05:51:12.858Z,101724.47
2024-02-29T05:53:39.762Z,101731.97
2024-02-29T05:56:06.439Z,101728.50
2024-02-29T05:58:33.172Z,101724.06
2024-02-29T06:01:00.101Z,101730.16
2024-02-29T06:03:27.417Z,101735.00
2024-02-29T06:05:54.200Z,101731.59
2024-02-29T06:08:20.889Z,101731.94
2024-02-29T06:10:48.360Z,101735.28
2024-02-29T06:13:15.612Z,101740.31
2024-02-29T06:15:43.323Z,101728.63
2024-02-29T06:18:11.806Z,101727.97
2024-02-29T06:20:38.611Z,101734.16
2024-02-29T06:23:05.733Z,101729.97
2024-02-29T06:25:32.793Z,101719.09
2024-02-29T06:27:59.552Z,101722.47
2024-02-29T06:30:33.314Z,101725.31
2024-02-29T06:33:00.629Z,101717.34
2024-02-29T06:35:28.562Z,101720.69
2024-02-29T06:37:55.306Z,101717.97
2024-02-29T06:40:23.140Z,101714.94
2024-02-29T06:42:50.273Z,101715.69
2024-02-29T06:45:18.088Z,101701.03
2024-02-29T06:47:45.838Z,101705.56
2024-02-29T06:50:13.690Z,101704.72
2024-02-29T06:52:40.850Z,101697.06
2024-02-29T06:55:11.296Z,101697.66
2024-02-29T06:57:38.901Z,101704.75
2024-02-29T07:00:07.348Z,101700.00
2024-02-29T07:02:34.578Z,101692.19
2024-02-29T07:05:01.557Z,101701.88
2024-02-29T07:07:28.343Z,101686.25
2024-02-29T07:09:55.698Z,101695.38
2024-02-29T07:12:22.483Z,101702.38
2024-02-29T07:14:49.571Z,101684.00
2024-02-29T07:17:16.470Z,101687.69
2024-02-29T07:19:43.132Z,101682.09
2024-02-29T07:22:09.821Z,101685.66
2024-02-29T07:24:36.562Z,101686.97
2024-02-29T07:27:03.244Z,101673.41
2024-02-29T07:29:30.587Z,101680.75
2024-02-29T07:31:57.321Z,101675.50
2024-02-29T07:34:24.041Z,101675.16
2024-02-29T07:36:50.747Z,101677.22
2024-02-29T07:39:17.879Z,101671.38
2024-02-29T07:41:44.619Z,101665.63
2024-02-29T07:44:11.365Z,101659.06
2024-02-29T07:46:38.145Z,101661.56
2024-02-29T07:49:05.054Z,101665.47
2024-02-29T07:51:31.704Z,101660.84
2024-02-29T07:53:58.363Z,101664.22
2024-02-29T07:56:27.304Z,101672.84
2024-02-29T07:58:55.452Z,101663.63
2024-02-29T08:01:22.224Z,101658.44
2024-02-29T08:03:49.743Z,101660.25
2024-02-29T08:06:17.746Z,101662.50
2024-02-29T08:08:44.465Z,101660.44
2024-02-29T08:11:11.206Z,101661.81
2024-02-29T08:13:38.000Z,101660.63
2024-02-29T08:16:05.486Z,101651.78
2024-02-29T08:18:32.505Z,101650.81
2024-02-29T08:20:59.149Z,101654.84
2024-02-29T08:23:26.139Z,101648.97
2024-02-29T08:25:53.025Z,101640.91
2024-02-29T08:28:19.843Z,101642.06
2024-02-29T08:30:46.963Z,101643.38
2024-02-29T08:33:13.711Z,101639.47
2024-02-29T08:35:40.417Z,101637.03
2024-02-29T08:38:07.198Z,101627.31
2024-02-29T08:40:33.992Z,101636.84
2024-02-29T08:43:00.722Z,101630.81
2024-02-29T08:45:27.571Z,101628.88
2024-02-29T08:47:54.274Z,101626.63
2024-02-29T08:50:20.921Z,101634.22
2024-02-29T08:52:47.699Z,101629.44
2024-02-29T08:55:14.470Z,101622.88
2024-02-29T08:57:41.244Z,101621.63
2024-02-29T09:00:08.344Z,101617.31
2024-02-29T09:02:34.966Z,101605.44
2024-02-29T09:05:01.653Z,101613.72
2024-02-29T09:07:28.564Z,101602.75
2024-02-29T09:09:55.388Z,101600.56
2024-02-29T09:12:22.118Z,101598.63
2024-02-29T09:14:48.872Z,101595.31
2024-02-29T09:17:16.037Z,101595.31
2024-02-29T09:19:42.725Z,101599.16
2024-02-29T09:22:09.417Z,101590.25
2024-02-29T09:24:36.133Z,101588.41
2024-02-29T09:27:03.538Z,101595.59
2024-02-29T09:29:32.906Z,101594.63
2024-02-29T09:32:00.895Z,101586.22
2024-02-29T09:34:27.646Z,101591.88
2024-02-29T09:36:54.434Z,101578.88
2024-02-29T09:39:21.078Z,101580.03
2024-02-29T09:42:08.238Z,101587.91
2024-02-29T09:44:35.246Z,101584.22
2024-02-29T09:47:02.350Z,101576.59
2024-02-29T09:49:29.695Z,101579.41
2024-02-29T09:51:56.656Z,101577.91
2024-02-29T09:54:23.574Z,101569.38
2024-02-29T09:56:50.279Z,101573.03
2024-02-29T09:59:18.684Z,101564.88
2024-02-29T10:01:49.500Z,101565.53
2024-02-29T10:04:16.657Z,101566.44
2024-02-29T10:06:43.508Z,101567.47
2024-02-29T10:09:10.442Z,101559.69
2024-02-29T10:11:42.127Z,101554.63
2024-02-29T10:14:32.278Z,101548.09
2024-02-29T10:16:58.982Z,101551.63
2024-02-29T10:19:26.302Z,101544.78
2024-02-29T10:21:53.714Z,101539.16
2024-02-29T10:24:21.558Z,101536.69
2024-02-29T10:26:48.331Z,101532.88
2024-02-29T10:29:17.900Z,101534.88
2024-02-29T10:31:44.857Z,101534.69
2024-02-29T10:34:12.520Z,101525.81
2024-02-29T10:36:41.862Z,101517.31
2024-02-29T10:39:10.020Z,101518.78
2024-02-29T10:41:40.050Z,101512.03
2024-02-29T10:44:10.529Z,101512.75
2024-02-29T10:46:38.878Z,101508.75
2024-02-29T10:49:14.299Z,101508.47
2024-02-29T10:51:49.101Z,101504.06
2024-02-29T10:54:23.032Z,101495.31
2024-02-29T10:56:54.789Z,101494.03
2024-02-29T10:59:21.807Z,101494.09
2024-02-29T11:01:49.510Z,101490.78
2024-02-29T11:04:16.808Z,101472.03
2024-02-29T11:06:47.579Z,101471.56
2024-02-29T11:09:26.457Z,101479.56
2024-02-29T11:12:16.924Z,101470.56
2024-02-29T11:14:49.743Z,101463.13
2024-02-29T11:17:16.811Z,101460.06
2024-02-29T11:19:51.818Z,101445.66
2024-02-29T11:22:32.600Z,101447.59
2024-02-29T11:25:00.885Z,101439.97
2024-02-29T11:27:34.882Z,101426.06
2024-02-29T11:30:03.401Z,101419.97
2024-02-29T11:32:33.503Z,101412.00
2024-02-29T11:35:01.127Z,101418.59
2024-02-29T11:37:34.738Z,101405.91
2024-02-29T11:40:06.047Z,101399.00
2024-02-29T11:42:33.201Z,101394.22
2024-02-29T11:44:59.865Z,101396.09
2024-02-29T11:47:26.557Z,101389.13
2024-02-29T11:49:54.915Z,101375.94
2024-02-29T11:52:21.711Z,101380.63
2024-02-29T11:54:48.542Z,101378.66
2024-02-29T11:57:15.259Z,101371.41
2024-02-29T11:59:43.150Z,101378.66
2024-02-29T12:02:09.935Z,101361.31
2024-02-29T12:04:37.306Z,101359.22
2024-02-29T12:07:04.013Z,101360.94
2024-02-29T12:09:33.365Z,101353.03
2024-02-29T12:12:00.855Z,101354.38
2024-02-29T12:14:27.971Z,101345.94
2024-02-29T12:16:54.950Z,101339.50
2024-02-29T12:19:21.712Z,101336.56
2024-02-29T12:21:48.426Z,101324.88
2024-02-29T12:24:16.025Z,101327.59
2024-02-29T12:26:43.567Z,101321.22
2024-02-29T12:29:10.395Z,101314.94
2024-02-29T12:31:38.378Z,101310.38
2024-02-29T12:34:06.178Z,101307.66
2024-02-29T12:36:33.449Z,101292.50
2024-02-29T12:39:02.309Z,101295.59
2024-02-29T12:41:29.246Z,101291.44
2024-02-29T12:43:58.364Z,101282.34
2024-02-29T12:46:27.593Z,101276.16
2024-02-29T12:48:54.320Z,101274.22
2024-02-29T12:51:21.072Z,101263.44
2024-02-29T12:53:47.733Z,101268.16
2024-02-29T12:56:14.798Z,101265.38
2024-02-29T12:58:42.340Z,101255.75
2024-02-29T13:01:09.648Z,101260.16
2024-02-29T13:03:36.509Z,101259.47
2024-02-29T13:06:03.405Z,101241.19
2024-02-29T13:08:30.272Z,101235.13
2024-02-29T13:10:56.951Z,101231.69
2024-02-29T13:13:23.662Z,101222.66
2024-02-29T13:15:52.560Z,101231.59
2024-02-29T13:18:19.851Z,101221.03
2024-02-29T13:20:46.652Z,101211.53
2024-02-29T13:23:13.459Z,101216.06
2024-02-29T13:25:40.166Z,101209.41
2024-02-29T13:28:07.170Z,101212.28
2024-02-29T13:30:34.156Z,101212.44
2024-02-29T13:33:01.062Z,101214.81
2024-02-29T13:35:27.784Z,101206.44
2024-02-29T13:37:54.583Z,101200.59
2024-02-29T13:40:21.322Z,101196.72
2024-02-29T13:42:49.702Z,101193.56
2024-02-29T13:45:16.780Z,101193.78
2024-02-29T13:47:49.305Z,101191.78
2024-02-29T13:50:16.546Z,101190.47
2024-02-29T13:52:44.358Z,101182.28
2024-02-29T13:55:11.977Z,101186.50
2024-02-29T13:57:39.092Z,101171.16
2024-02-29T14:00:07.437Z,101174.75
2024-02-29T14:02:34.338Z,101163.16
2024-02-29T14:05:00.990Z,101165.28
2024-02-29T14:07:28.481Z,101157.44
2024-02-29T14:09:55.273Z,101164.50
2024-02-29T14:12:22.777Z,101157.34
2024-02-29T14:14:49.421Z,101150.09
2024-02-29T14:17:16.079Z,101153.97
2024-02-29T14:19:42.737Z,101155.81
2024-02-29T14:22:09.388Z,101154.66
2024-02-29T14:24:36.108Z,101143.88
2024-02-29T14:27:02.832Z,101147.94
2024-02-29T14:29:29.901Z,101137.94
2024-02-29T14:31:56.557Z,101134.28
2024-02-29T14:34:23.649Z,101132.75
2024-02-29T14:36:50.649Z,101140.16
2024-02-29T14:39:17.522Z,101131.53
2024-02-29T14:41:45.436Z,101125.25
2024-02-29T14:44:13.379Z,101123.47
2024-02-29T14:46:40.055Z,101121.28
2024-02-29T14:49:06.841Z,101116.19
2024-02-29T14:51:33.483Z,101121.84
2024-02-29T14:54:00.421Z,101116.53
2024-02-29T14:56:28.240Z,101110.28
2024-02-29T14:58:58.273Z,101115.19
2024-02-29T15:01:25.984Z,101112.16
2024-02-29T15:03:55.722Z,101108.28
2024-02-29T15:06:22.692Z,101116.44
2024-02-29T15:08:49.487Z,101095.72
2024-02-29T15:11:16.388Z,101092.31
2024-02-29T15:13:43.190Z,101088.38
2024-02-29T15:16:10.413Z,101094.75
2024-02-29T15:18:37.113Z,101092.97
2024-02-29T15:21:03.957Z,101090.88
2024-02-29T15:23:30.633Z,101090.69
2024-02-29T15:25:57.407Z,101085.53
2024-02-29T15:28:29.425Z,101087.19
2024-02-29T15:30:56.185Z,101082.28
2024-02-29T15:33:22.941Z,101086.00
2024-02-29T15:35:49.841Z,101073.81
2024-02-29T15:38:17.824Z,101074.94
2024-02-29T15:40:47.729Z,101077.31
2024-02-29T15:43:15.575Z,101071.88
2024-02-29T15:45:42.888Z,101066.19
2024-02-29T15:48:09.813Z,101058.69
2024-02-29T15:50:36.640Z,101068.53
2024-02-29T15:53:03.441Z,101060.66
2024-02-29T15:55:30.188Z,101055.47
2024-02-29T15:57:57.231Z,101045.53
2024-02-29T16:00:24.395Z,101047.06
2024-02-29T16:02:51.912Z,101043.66
2024-02-29T16:05:18.817Z,101044.41
2024-02-29T16:07:45.482Z,101048.50
2024-02-29T16:10:12.257Z,101039.72
2024-02-29T16:12:39.832Z,101042.06
2024-02-29T16:15:07.534Z,101039.91
2024-02-29T16:17:35.696Z,101038.25
2024-02-29T16:20:02.480Z,101048.22
2024-02-29T16:22:29.467Z,101044.59
2024-02-29T16:24:56.353Z,101044.06
2024-02-29T16:27:23.171Z,101048.53
2024-02-29T16:29:49.805Z,101043.69
2024-02-29T16:32:16.450Z,101042.06
2024-02-29T16:34:43.137Z,101044.38
2024-02-29T16:37:09.916Z,101040.75
2024-02-29T16:39:37.614Z,101040.03
2024-02-29T16:42:06.163Z,101042.53
2024-02-29T16:44:32.908Z,101042.97
2024-02-29T16:47:00.005Z,101034.97
2024-02-29T16:49:27.417Z,101040.97
2024-02-29T16:51:54.671Z,101030.41
2024-02-29T16:54:21.392Z,101034.03
2024-02-29T16:56:48.208Z,101027.66
2024-02-29T16:59:15.264Z,101022.72
2024-02-29T17:01:43.713Z,101024.44
2024-02-29T17:04:10.588Z,101018.34
2024-02-29T17:06:37.647Z,101013.19
2024-02-29T17:09:04.981Z,101018.47
2024-02-29T17:11:31.954Z,101014.22
2024-02-29T17:13:59.344Z,101019.97
2024-02-29T17:16:26.324Z,101017.72
2024-02-29T17:18:53.149Z,101017.41
2024-02-29T17:21:22.246Z,101002.72
2024-02-29T17:23:48.941Z,101012.03
2024-02-29T17:26:20.266Z,101015.66
2024-02-29T17:28:52.024Z,101014.59
2024-02-29T17:31:20.648Z,101011.72
2024-02-29T17:33:48.137Z,101012.91
2024-02-29T17:36:15.181Z,101006.91
2024-02-29T17:38:44.649Z,101006.25
2024-02-29T17:41:12.894Z,101005.16
2024-02-29T17:43:42.897Z,101001.81
2024-02-29T17:46:09.627Z,101000.81
2024-02-29T17:48:36.894Z,100999.94
2024-02-29T17:51:05.185Z,100987.31
2024-02-29T17:53:32.020Z,100999.34
2024-02-29T17:55:58.826Z,100987.78
2024-02-29T17:58:25.986Z,100987.94
2024-02-29T18:00:52.790Z,100990.09
2024-02-29T18:03:19.521Z,100979.97
2024-02-29T18:05:46.314Z,100981.47
2024-02-29T18:08:13.121Z,100981.91
2024-02-29T18:10:39.851Z,100977.00
2024-02-29T18:13:06.976Z,100978.94
2024-02-29T18:15:33.714Z,100981.69
2024-02-29T18:18:00.607Z,100975.13
2024-02-29T18:20:27.929Z,100968.97
2024-02-29T18:22:54.795Z,100968.53
2024-02-29T18:25:21.748Z,100959.88
2024-02-29T18:27:48.647Z,100952.41
2024-02-29T18:30:15.546Z,100958.13
2024-02-29T18:32:42.263Z,100954.19
2024-02-29T18:35:11.038Z,100956.00
2024-02-29T18:37:40.904Z,100942.66
2024-02-29T18:40:14.124Z,100943.78
2024-02-29T18:42:41.197Z,100938.59
2024-02-29T18:45:08.630Z,100932.22
2024-02-29T18:47:36.091Z,100933.97
2024-02-29T18:50:04.052Z,100933.75
2024-02-29T18:52:30.942Z,100924.84
2024-02-29T18:54:57.825Z,100927.00
2024-02-29T18:57:24.546Z,100923.31
2024-02-29T18:59:51.228Z,100921.19
2024-02-29T19:02:17.874Z,100915.53
2024-02-29T19:04:44.717Z,100919.13
2024-02-29T19:07:11.447Z,100920.94
2024-02-29T19:09:38.173Z,100923.19
2024-02-29T19:12:05.164Z,100909.16
2024-02-29T19:14:31.796Z,100908.25
2024-02-29T19:16:58.430Z,100902.34
2024-02-29T19:19:26.287Z,100902.97
2024-02-29T19:21:53.215Z,100904.47
2024-02-29T19:24:19.984Z,100898.16
2024-02-29T19:26:46.736Z,100887.84
2024-02-29T19:29:13.774Z,100890.81
2024-02-29T19:31:40.528Z,100890.28
2024-02-29T19:34:07.641Z,100888.13
2024-02-29T19:36:34.390Z,100884.03
2024-02-29T19:39:01.123Z,100881.69
2024-02-29T19:41:27.886Z,100879.13
2024-02-29T19:43:54.633Z,100881.19
2024-02-29T19:46:21.342Z,100881.31
2024-02-29T19:48:48.075Z,100874.25
2024-02-29T19:51:15.676Z,100871.06
2024-02-29T19:53:45.044Z,100872.84
2024-02-29T19:56:12.347Z,100870.31
2024-02-29T19:58:39.646Z,100869.72
2024-02-29T20:01:07.313Z,100868.97
2024-02-29T20:03:34.091Z,100860.31
2024-02-29T20:06:01.150Z,100860.50
2024-02-29T20:08:27.886Z,100851.97
2024-02-29T20:10:54.666Z,100854.41
2024-02-29T20:13:21.621Z,100855.16
2024-02-29T20:15:48.670Z,100841.03
2024-02-29T20:18:17.605Z,100842.16
2024-02-29T20:20:44.427Z,100840.75
2024-02-29T20:23:11.112Z,100840.53
2024-02-29T20:25:38.006Z,100832.34
2024-02-29T20:28:05.084Z,100834.19
2024-02-29T20:30:31.781Z,100830.63
2024-02-29T20:32:58.577Z,100838.28
2024-02-29T20:35:25.389Z,100822.97
2024-02-29T20:37:52.134Z,100826.41
2024-02-29T20:40:18.987Z,100814.94
2024-02-29T20:42:45.987Z,100823.31
2024-02-29T20:45:16.036Z,100820.66
2024-02-29T20:47:44.835Z,100822.09
2024-02-29T20:50:12.053Z,100811.69
2024-02-29T20:52:38.860Z,100818.66
2024-02-29T20:55:06.071Z,100806.25
2024-02-29T20:57:33.891Z,100801.44
2024-02-29T21:00:01.071Z,100805.75
2024-02-29T21:02:29.758Z,100796.75
2024-02-29T21:04:59.266Z,100802.56
2024-02-29T21:07:26.190Z,100791.69
2024-02-29T21:09:53.108Z,100795.16
2024-02-29T21:12:19.990Z,100793.13
2024-02-29T21:14:46.681Z,100792.69
2024-02-29T21:17:13.324Z,100786.69
2024-02-29T21:19:40.228Z,100784.00
2024-02-29T21:22:07.658Z,100777.50
2024-02-29T21:24:34.396Z,100775.72
2024-02-29T21:27:01.037Z,100776.72
2024-02-29T21:29:27.694Z,100771.66
2024-02-29T21:31:54.338Z,100769.19
2024-02-29T21:34:21.512Z,100767.97
2024-02-29T21:36:48.944Z,100767.97
2024-02-29T21:39:19.169Z,100769.69
2024-02-29T21:41:48.874Z,100763.84
2024-02-29T21:44:15.514Z,100765.16
2024-02-29T21:46:42.492Z,100764.25
2024-02-29T21:49:09.857Z,100757.53
2024-02-29T21:51:36.685Z,100758.72
2024-02-29T21:54:03.713Z,100765.59
2024-02-29T21:56:30.530Z,100757.78
2024-02-29T21:58:57.231Z,100771.81
2024-02-29T22:01:24.044Z,100763.16
2024-02-29T22:03:50.815Z,100767.09
2024-02-29T22:06:17.587Z,100752.94
2024-02-29T22:08:44.221Z,100754.88
2024-02-29T22:11:10.940Z,100754.28
2024-02-29T22:13:37.653Z,100755.22
2024-02-29T22:16:04.579Z,100752.06
2024-02-29T22:18:31.301Z,100751.38
2024-02-29T22:20:57.939Z,100748.72
2024-02-29T22:23:24.598Z,100743.56
2024-02-29T22:25:51.378Z,100737.06
2024-02-29T22:28:18.214Z,100736.78
2024-02-29T22:30:46.602Z,100737.25
2024-02-29T22:33:14.208Z,100734.50
2024-02-29T22:35:40.969Z,100724.97
2024-02-29T22:38:08.014Z,100728.69
2024-02-29T22:40:34.833Z,100719.94
2024-02-29T22:43:01.693Z,100718.59
2024-02-29T22:45:30.440Z,100711.59
2024-02-29T22:47:57.575Z,100707.59
2024-02-29T22:50:24.275Z,100703.13
2024-02-29T22:52:50.943Z,100703.22
2024-02-29T22:55:18.003Z,100707.66
2024-02-29T22:57:44.727Z,100698.22
2024-02-29T23:00:19.278Z,100699.50
2024-02-29T23:02:45.944Z,100687.56
2024-02-29T23:05:13.517Z,100691.63
2024-02-29T23:07:41.295Z,100688.59
2024-02-29T23:10:08.451Z,100687.50
2024-02-29T23:12:36.413Z,100683.97
2024-02-29T23:15:03.103Z,100683.59
2024-02-29T23:17:29.736Z,100679.13
2024-02-29T23:19:56.568Z,100674.50
2024-02-29T23:22:23.334Z,100669.53
2024-02-29T23:24:49.990Z,100668.13
2024-02-29T23:27:16.700Z,100664.75
2024-02-29T23:29:43.387Z,100659.19
2024-02-29T23:32:10.226Z,100654.88
2024-02-29T23:34:37.068Z,100657.94
2024-02-29T23:37:04.918Z,100650.13
2024-02-29T23:39:31.636Z,100662.75
2024-02-29T23:41:58.690Z,100661.94
2024-02-29T23:44:25.410Z,100647.63
2024-02-29T23:46:52.129Z,100656.59
2024-02-29T23:49:19.062Z,100651.81
2024-02-29T23:51:45.785Z,100649.22
2024-02-29T23:54:12.493Z,100647.41
2024-02-29T23:56:39.248Z,100648.41
2024-02-29T23:59:05.874Z,100641.88
